createdAt,value
2017-11-22T00:01:45.341Z,21.96
2017-11-22T00:02:17.445Z,22.09
2017-11-22T00:02:49.522Z,22.02
2017-11-22T00:03:21.618Z,22.07
2017-11-22T00:03:53.718Z,22.02
2017-11-22T00:04:25.816Z,22.04
2017-11-22T00:04:57.924Z,21.96
2017-11-22T00:06:49.590Z,22.02
2017-11-22T00:07:21.705Z,22.02
2017-11-22T00:07:53.822Z,22.02
2017-11-22T00:08:25.926Z,22.07
2017-11-22T00:08:58.018Z,22.07
2017-11-22T00:09:30.125Z,22
2017-11-22T00:10:02.227Z,22.02
2017-11-22T00:10:34.363Z,22.09
2017-11-22T00:11:06.451Z,22.05
2017-11-22T00:11:38.549Z,21.97
2017-11-22T00:12:10.651Z,21.97
2017-11-22T00:12:42.761Z,22.07
2017-11-22T00:13:14.840Z,22.08
2017-11-22T00:13:46.935Z,22.05
2017-11-22T00:14:19.021Z,22
2017-11-22T00:14:51.119Z,21.99
2017-11-22T00:15:23.210Z,22.02
2017-11-22T00:15:55.309Z,22.02
2017-11-22T00:16:27.399Z,21.94
2017-11-22T00:16:59.509Z,21.96
2017-11-22T00:17:31.611Z,22.04
2017-11-22T00:18:03.694Z,21.97
2017-11-22T00:18:35.816Z,21.99
2017-11-22T00:19:07.919Z,22.05
2017-11-22T00:19:40.014Z,22.02
2017-11-22T00:20:12.126Z,21.94
2017-11-22T00:20:44.226Z,21.97
2017-11-22T00:21:16.311Z,22.02
2017-11-22T00:23:07.842Z,21.9
2017-11-22T00:24:59.256Z,21.92
2017-11-22T00:25:31.370Z,21.94
2017-11-22T00:26:03.462Z,21.94
2017-11-22T00:27:54.849Z,21.97
2017-11-22T00:28:26.942Z,21.97
2017-11-22T00:28:59.024Z,21.99
2017-11-22T00:29:31.123Z,21.99
2017-11-22T00:30:03.229Z,21.92
2017-11-22T00:30:35.335Z,21.96
2017-11-22T00:31:07.445Z,22
2017-11-22T00:31:39.535Z,21.93
2017-11-22T00:32:11.656Z,21.9
2017-11-22T00:34:03.341Z,21.97
2017-11-22T00:34:35.428Z,21.94
2017-11-22T00:36:27.180Z,21.97
2017-11-22T00:36:59.261Z,21.93
2017-11-22T00:37:31.363Z,21.96
2017-11-22T00:38:03.474Z,21.97
2017-11-22T00:38:35.580Z,21.92
2017-11-22T00:39:07.681Z,21.96
2017-11-22T00:39:39.787Z,21.97
2017-11-22T00:40:11.867Z,21.94
2017-11-22T00:42:03.278Z,21.96
2017-11-22T00:42:35.384Z,21.96
2017-11-22T00:43:07.485Z,21.94
2017-11-22T00:43:39.592Z,21.94
2017-11-22T00:44:11.699Z,21.96
2017-11-22T00:44:43.779Z,21.94
2017-11-22T00:45:15.889Z,21.97
2017-11-22T00:45:47.994Z,21.96
2017-11-22T00:46:20.100Z,21.94
2017-11-22T00:46:52.209Z,21.92
2017-11-22T00:47:24.320Z,21.97
2017-11-22T00:47:56.441Z,21.96
2017-11-22T00:49:47.939Z,21.97
2017-11-22T00:50:20.046Z,22
2017-11-22T00:50:52.148Z,21.94
2017-11-22T00:51:24.240Z,22
2017-11-22T00:51:56.343Z,21.92
2017-11-22T00:52:28.429Z,21.96
2017-11-22T00:53:00.544Z,21.94
2017-11-22T00:53:32.640Z,21.94
2017-11-22T00:54:04.747Z,21.94
2017-11-22T00:54:36.860Z,21.96
2017-11-22T00:55:08.963Z,21.96
2017-11-22T00:55:41.077Z,21.96
2017-11-22T00:56:13.174Z,21.94
2017-11-22T00:56:45.294Z,21.94
2017-11-22T00:57:17.369Z,21.94
2017-11-22T00:57:49.475Z,21.92
2017-11-22T00:58:21.572Z,21.92
2017-11-22T01:00:13.367Z,21.96
2017-11-22T01:00:45.483Z,21.96
2017-11-22T01:01:17.587Z,21.96
2017-11-22T01:01:49.693Z,21.89
2017-11-22T01:02:21.801Z,21.94
2017-11-22T01:02:53.897Z,22.04
2017-11-22T01:03:25.987Z,21.92
2017-11-22T01:03:58.104Z,21.93
2017-11-22T01:05:49.885Z,21.96
2017-11-22T01:06:21.960Z,21.96
2017-11-22T01:06:54.050Z,21.96
2017-11-22T01:07:26.155Z,21.94
2017-11-22T01:07:58.266Z,21.93
2017-11-22T01:08:30.384Z,21.99
2017-11-22T01:09:02.527Z,21.94
2017-11-22T01:09:34.619Z,21.92
2017-11-22T01:11:25.945Z,21.9
2017-11-22T01:13:17.366Z,21.94
2017-11-22T01:13:49.443Z,21.93
2017-11-22T01:14:21.530Z,22.02
2017-11-22T01:14:53.630Z,21.99
2017-11-22T01:15:25.725Z,21.89
2017-11-22T01:15:57.840Z,21.94
2017-11-22T01:16:29.949Z,21.94
2017-11-22T01:17:02.078Z,21.89
2017-11-22T01:17:34.162Z,21.99
2017-11-22T01:18:06.293Z,21.93
2017-11-22T01:18:38.379Z,22.02
2017-11-22T01:19:10.487Z,21.93
2017-11-22T01:19:42.612Z,21.92
2017-11-22T01:20:14.704Z,21.93
2017-11-22T01:20:46.792Z,21.94
2017-11-22T01:21:18.870Z,21.97
2017-11-22T01:21:50.965Z,21.94
2017-11-22T01:22:23.077Z,21.94
2017-11-22T01:22:55.175Z,21.92
2017-11-22T01:24:46.863Z,21.96
2017-11-22T01:25:18.969Z,21.97
2017-11-22T01:25:51.061Z,21.93
2017-11-22T01:26:23.172Z,21.92
2017-11-22T01:26:55.284Z,21.94
2017-11-22T01:27:27.366Z,21.9
2017-11-22T01:27:59.458Z,21.96
2017-11-22T01:28:31.551Z,21.97
2017-11-22T01:29:03.664Z,21.94
2017-11-22T01:30:55.300Z,21.93
2017-11-22T01:32:46.632Z,21.92
2017-11-22T01:33:18.731Z,21.94
2017-11-22T01:35:10.207Z,21.93
2017-11-22T01:35:42.307Z,21.99
2017-11-22T01:36:14.405Z,21.99
2017-11-22T01:36:46.534Z,21.94
2017-11-22T01:37:18.635Z,21.94
2017-11-22T01:39:10.222Z,21.99
2017-11-22T01:39:42.318Z,21.94
2017-11-22T01:40:14.418Z,21.94
2017-11-22T01:40:46.514Z,21.97
2017-11-22T01:41:18.611Z,21.99
2017-11-22T01:41:50.708Z,21.97
2017-11-22T01:42:22.819Z,22
2017-11-22T01:42:54.920Z,21.96
2017-11-22T01:43:27.001Z,21.97
2017-11-22T01:43:59.104Z,21.99
2017-11-22T01:44:31.204Z,21.99
2017-11-22T01:46:22.967Z,22
2017-11-22T01:46:55.076Z,22.02
2017-11-22T01:47:27.172Z,21.94
2017-11-22T01:47:59.269Z,22.02
2017-11-22T01:48:31.369Z,21.97
2017-11-22T01:49:03.464Z,21.96
2017-11-22T01:50:54.888Z,21.96
2017-11-22T01:51:26.995Z,21.96
2017-11-22T01:53:18.730Z,21.96
2017-11-22T01:55:10.213Z,21.97
2017-11-22T01:55:42.314Z,21.99
2017-11-22T01:56:14.439Z,21.92
2017-11-22T01:56:46.531Z,21.9
2017-11-22T01:57:18.635Z,21.97
2017-11-22T01:57:50.713Z,21.94
2017-11-22T01:58:22.827Z,21.9
2017-11-22T02:00:14.229Z,21.93
2017-11-22T02:00:46.340Z,21.96
2017-11-22T02:02:37.896Z,21.9
2017-11-22T02:03:09.992Z,21.99
2017-11-22T02:03:42.092Z,21.89
2017-11-22T02:04:14.172Z,21.96
2017-11-22T02:04:46.263Z,21.96
2017-11-22T02:06:37.981Z,21.92
2017-11-22T02:07:10.083Z,21.89
2017-11-22T02:07:42.188Z,21.92
2017-11-22T02:08:14.300Z,21.94
2017-11-22T02:08:46.402Z,21.99
2017-11-22T02:10:37.894Z,21.92
2017-11-22T02:11:10.003Z,21.94
2017-11-22T02:11:42.108Z,21.96
2017-11-22T02:12:14.224Z,21.94
2017-11-22T02:12:46.316Z,21.94
2017-11-22T02:13:18.409Z,21.94
2017-11-22T02:13:50.509Z,21.92
2017-11-22T02:14:22.604Z,21.96
2017-11-22T02:14:54.728Z,21.96
2017-11-22T02:15:26.834Z,21.97
2017-11-22T02:15:58.926Z,21.92
2017-11-22T02:16:31.011Z,21.93
2017-11-22T02:18:22.398Z,21.93
2017-11-22T02:18:54.494Z,21.93
2017-11-22T02:19:26.577Z,21.94
2017-11-22T02:19:58.663Z,21.94
2017-11-22T02:20:30.789Z,21.96
2017-11-22T02:21:02.888Z,21.92
2017-11-22T02:21:34.984Z,21.94
2017-11-22T02:23:26.495Z,21.92
2017-11-22T02:23:58.580Z,21.94
2017-11-22T02:24:30.689Z,21.94
2017-11-22T02:27:41.909Z,21.89
2017-11-22T02:28:14.022Z,21.89
2017-11-22T02:28:46.117Z,21.92
2017-11-22T02:30:37.821Z,21.97
2017-11-22T02:31:09.940Z,21.94
2017-11-22T02:31:42.039Z,21.97
2017-11-22T02:32:14.144Z,21.9
2017-11-22T02:32:46.256Z,21.97
2017-11-22T02:34:37.996Z,21.93
2017-11-22T02:36:29.386Z,21.93
2017-11-22T02:37:01.524Z,21.93
2017-11-22T02:37:33.583Z,21.96
2017-11-22T02:38:05.677Z,21.94
2017-11-22T02:38:37.772Z,21.97
2017-11-22T02:39:09.868Z,21.94
2017-11-22T02:39:41.978Z,21.9
2017-11-22T02:40:14.091Z,21.94
2017-11-22T02:40:46.185Z,21.94
2017-11-22T02:41:18.292Z,21.97
2017-11-22T02:41:50.391Z,21.93
2017-11-22T02:42:22.481Z,21.99
2017-11-22T02:42:54.578Z,21.97
2017-11-22T02:43:26.701Z,21.96
2017-11-22T02:43:58.795Z,21.97
2017-11-22T02:44:30.889Z,21.89
2017-11-22T02:45:03.010Z,22.02
2017-11-22T02:45:35.122Z,21.94
2017-11-22T02:46:07.234Z,21.94
2017-11-22T02:46:39.332Z,21.97
2017-11-22T02:47:11.442Z,22
2017-11-22T02:47:43.547Z,21.97
2017-11-22T02:48:15.666Z,21.93
2017-11-22T02:50:07.001Z,21.97
2017-11-22T02:50:39.104Z,21.99
2017-11-22T02:52:30.753Z,21.99
2017-11-22T02:53:02.852Z,21.93
2017-11-22T02:53:34.941Z,22
2017-11-22T02:54:07.042Z,21.99
2017-11-22T02:54:39.132Z,22.02
2017-11-22T02:55:11.236Z,21.99
2017-11-22T02:55:43.350Z,22.05
2017-11-22T02:56:15.451Z,21.96
2017-11-22T02:56:47.547Z,22
2017-11-22T02:57:19.646Z,21.99
2017-11-22T02:57:51.734Z,22.05
2017-11-22T02:58:23.837Z,22.05
2017-11-22T02:58:55.931Z,22.04
2017-11-22T02:59:28.039Z,22.04
2017-11-22T03:00:00.121Z,21.99
2017-11-22T03:00:32.219Z,22
2017-11-22T03:02:23.843Z,21.96
2017-11-22T03:02:55.946Z,22.05
2017-11-22T03:03:28.056Z,22.05
2017-11-22T03:04:00.158Z,22.05
2017-11-22T03:04:32.264Z,22.05
2017-11-22T03:05:04.371Z,22.05
2017-11-22T03:05:36.479Z,21.97
2017-11-22T03:06:08.570Z,22.05
2017-11-22T03:06:40.670Z,21.99
2017-11-22T03:07:12.769Z,22.07
2017-11-22T03:07:44.881Z,22.04
2017-11-22T03:08:16.974Z,22.04
2017-11-22T03:08:49.093Z,22
2017-11-22T03:09:21.214Z,22.07
2017-11-22T03:09:53.320Z,22.04
2017-11-22T03:10:25.428Z,22.08
2017-11-22T03:13:36.513Z,22.02
2017-11-22T03:14:08.627Z,22.11
2017-11-22T03:14:40.746Z,22.05
2017-11-22T03:15:12.839Z,22
2017-11-22T03:15:44.949Z,22.02
2017-11-22T03:16:17.042Z,22.07
2017-11-22T03:16:49.140Z,21.99
2017-11-22T03:17:21.247Z,22.02
2017-11-22T03:17:53.353Z,22.07
2017-11-22T03:18:25.472Z,22
2017-11-22T03:18:57.552Z,22.04
2017-11-22T03:19:29.647Z,21.99
2017-11-22T03:20:01.765Z,22.08
2017-11-22T03:20:33.887Z,22.07
2017-11-22T03:21:05.993Z,22.02
2017-11-22T03:21:38.107Z,22.04
2017-11-22T03:22:10.212Z,22.07
2017-11-22T03:22:42.331Z,22.07
2017-11-22T03:24:33.925Z,22
2017-11-22T03:25:06.023Z,22.05
2017-11-22T03:25:38.128Z,22.07
2017-11-22T03:26:10.239Z,22.07
2017-11-22T03:26:42.356Z,22.07
2017-11-22T03:27:14.463Z,21.94
2017-11-22T03:27:46.562Z,22.09
2017-11-22T03:28:18.666Z,22.09
2017-11-22T03:28:50.756Z,22.05
2017-11-22T03:29:22.857Z,22.04
2017-11-22T03:29:54.980Z,22.05
2017-11-22T03:30:27.092Z,22.07
2017-11-22T03:30:59.202Z,22.05
2017-11-22T03:31:31.315Z,22.09
2017-11-22T03:33:22.829Z,22.07
2017-11-22T03:33:54.858Z,22.04
2017-11-22T03:34:26.899Z,22
2017-11-22T03:34:58.942Z,21.96
2017-11-22T03:35:30.996Z,21.97
2017-11-22T03:36:03.023Z,22.09
2017-11-22T03:36:35.056Z,21.99
2017-11-22T03:37:07.097Z,22.08
2017-11-22T03:37:39.086Z,21.99
2017-11-22T03:38:11.133Z,22
2017-11-22T03:38:43.256Z,22.07
2017-11-22T03:39:15.241Z,22.07
2017-11-22T03:39:47.272Z,22.05
2017-11-22T03:40:19.299Z,22.04
2017-11-22T03:40:51.345Z,22.11
2017-11-22T03:41:23.367Z,22.07
2017-11-22T03:41:55.382Z,22.11
2017-11-22T03:42:27.393Z,22.05
2017-11-22T03:42:59.414Z,22.04
2017-11-22T03:43:31.432Z,22
2017-11-22T03:44:03.457Z,22.05
2017-11-22T03:44:35.469Z,22.04
2017-11-22T03:45:07.522Z,22.07
2017-11-22T03:45:39.553Z,22.02
2017-11-22T03:46:11.558Z,22.04
2017-11-22T03:46:43.572Z,22.05
2017-11-22T03:47:15.571Z,22
2017-11-22T03:47:47.604Z,22.07
2017-11-22T03:48:19.637Z,22.05
2017-11-22T03:48:51.699Z,22.04
2017-11-22T03:49:23.701Z,22.05
2017-11-22T03:49:55.735Z,22.07
2017-11-22T03:50:27.780Z,21.97
2017-11-22T03:50:59.768Z,21.99
2017-11-22T03:51:31.778Z,22.05
2017-11-22T03:52:03.829Z,22.07
2017-11-22T03:52:35.855Z,21.97
2017-11-22T03:53:08.708Z,21.99
2017-11-22T03:53:40.711Z,22.02
2017-11-22T03:54:12.792Z,22.07
2017-11-22T03:54:44.817Z,21.97
2017-11-22T03:55:16.998Z,22.07
2017-11-22T03:55:49.014Z,22
2017-11-22T03:56:21.041Z,22.08
2017-11-22T03:56:53.073Z,22
2017-11-22T03:57:25.087Z,22.09
2017-11-22T03:57:57.133Z,21.97
2017-11-22T03:58:29.240Z,22.02
2017-11-22T03:59:01.265Z,21.96
2017-11-22T03:59:33.289Z,22.08
2017-11-22T04:00:05.311Z,21.94
2017-11-22T04:00:37.349Z,22.09
2017-11-22T04:01:09.385Z,22.04
2017-11-22T04:01:41.418Z,21.96
2017-11-22T04:02:13.423Z,21.99
2017-11-22T04:02:45.431Z,21.97
2017-11-22T04:03:17.525Z,22.07
2017-11-22T04:03:49.565Z,21.97
2017-11-22T04:04:21.654Z,22.04
2017-11-22T04:04:53.654Z,22.05
2017-11-22T04:05:25.677Z,22.11
2017-11-22T04:05:57.727Z,22
2017-11-22T04:06:29.737Z,21.96
2017-11-22T04:07:01.761Z,22
2017-11-22T04:07:33.816Z,22.05
2017-11-22T04:08:05.896Z,21.96
2017-11-22T04:08:37.940Z,21.96
2017-11-22T04:09:09.959Z,21.99
2017-11-22T04:09:42.040Z,22.05
2017-11-22T04:10:14.057Z,22.05
2017-11-22T04:10:46.085Z,22.05
2017-11-22T04:11:18.102Z,22.11
2017-11-22T04:11:50.147Z,22.02
2017-11-22T04:12:22.172Z,22.05
2017-11-22T04:12:54.246Z,21.97
2017-11-22T04:13:26.285Z,22.07
2017-11-22T04:13:58.309Z,22.07
2017-11-22T04:14:30.337Z,22.09
2017-11-22T04:15:02.356Z,22.09
2017-11-22T04:15:34.446Z,21.97
2017-11-22T04:16:06.461Z,21.99
2017-11-22T04:16:38.540Z,22.04
2017-11-22T04:17:10.575Z,22.07
2017-11-22T04:17:42.585Z,22
2017-11-22T04:18:14.589Z,22.07
2017-11-22T04:18:46.605Z,21.99
2017-11-22T04:19:18.634Z,22.09
2017-11-22T04:19:50.682Z,22.07
2017-11-22T04:20:22.697Z,22.07
2017-11-22T04:20:54.732Z,22.04
2017-11-22T04:21:26.732Z,22.07
2017-11-22T04:21:58.757Z,22.04
2017-11-22T04:22:30.797Z,22.07
2017-11-22T04:23:02.899Z,22.08
2017-11-22T04:23:34.943Z,22.09
2017-11-22T04:24:06.984Z,22.07
2017-11-22T04:24:38.983Z,22.07
2017-11-22T04:25:11.012Z,22.07
2017-11-22T04:25:43.055Z,22.07
2017-11-22T04:26:15.078Z,22.07
2017-11-22T04:26:47.115Z,22.15
2017-11-22T04:27:19.160Z,22.08
2017-11-22T04:27:51.185Z,22.07
2017-11-22T04:28:23.244Z,22.05
2017-11-22T04:28:55.265Z,22.05
2017-11-22T04:29:27.293Z,22.11
2017-11-22T04:29:59.365Z,22.02
2017-11-22T04:30:31.391Z,22.05
2017-11-22T04:31:03.430Z,22.08
2017-11-22T04:31:35.453Z,22.07
2017-11-22T04:32:08.250Z,22.11
2017-11-22T04:32:40.275Z,22.05
2017-11-22T04:33:12.313Z,22.05
2017-11-22T04:33:44.332Z,22.08
2017-11-22T04:34:16.371Z,22.05
2017-11-22T04:34:48.353Z,22.09
2017-11-22T04:35:20.384Z,22.02
2017-11-22T04:35:52.429Z,22.09
2017-11-22T04:36:24.472Z,22
2017-11-22T04:36:56.478Z,22.05
2017-11-22T04:37:28.512Z,22.07
2017-11-22T04:38:00.529Z,22.07
2017-11-22T04:38:32.541Z,22.07
2017-11-22T04:39:04.548Z,22
2017-11-22T04:39:36.553Z,22.07
2017-11-22T04:40:08.580Z,22.08
2017-11-22T04:40:40.612Z,21.97
2017-11-22T04:41:12.645Z,22.09
2017-11-22T04:41:44.656Z,22.05
2017-11-22T04:42:17.345Z,22.07
2017-11-22T04:42:49.365Z,22.02
2017-11-22T04:43:21.365Z,22.09
2017-11-22T04:43:53.382Z,22.07
2017-11-22T04:44:25.402Z,22.08
2017-11-22T04:44:57.496Z,22.14
2017-11-22T04:45:29.515Z,22.04
2017-11-22T04:46:01.495Z,22.08
2017-11-22T04:46:33.556Z,22.11
2017-11-22T04:47:05.574Z,22.04
2017-11-22T04:47:37.573Z,22.09
2017-11-22T04:48:09.618Z,22.12
2017-11-22T04:48:41.632Z,22.05
2017-11-22T04:49:13.651Z,22.09
2017-11-22T04:49:45.652Z,22.04
2017-11-22T04:50:17.713Z,22.07
2017-11-22T04:50:49.755Z,22.05
2017-11-22T04:51:21.806Z,22.11
2017-11-22T04:51:53.811Z,22.08
2017-11-22T04:52:25.855Z,22.07
2017-11-22T04:52:57.863Z,22.04
2017-11-22T04:53:29.837Z,22.04
2017-11-22T04:54:01.814Z,22.04
2017-11-22T04:54:33.956Z,22.05
2017-11-22T04:55:06.637Z,22.05
2017-11-22T04:55:38.689Z,22.04
2017-11-22T04:56:10.701Z,22.05
2017-11-22T04:56:42.737Z,22
2017-11-22T04:57:14.731Z,22.07
2017-11-22T04:57:46.770Z,22.04
2017-11-22T04:58:18.768Z,22.11
2017-11-22T04:58:50.884Z,22.02
2017-11-22T04:59:22.886Z,22.07
2017-11-22T04:59:54.891Z,22.07
2017-11-22T05:00:26.908Z,22.08
2017-11-22T05:00:58.911Z,22.07
2017-11-22T05:01:30.939Z,22.09
2017-11-22T05:02:02.967Z,22.07
2017-11-22T05:02:35.009Z,22.02
2017-11-22T05:03:07.070Z,22.04
2017-11-22T05:03:39.105Z,22.07
2017-11-22T05:04:11.128Z,22.05
2017-11-22T05:04:43.159Z,22.08
2017-11-22T05:05:15.178Z,22.11
2017-11-22T05:05:47.197Z,22
2017-11-22T05:06:19.156Z,22.05
2017-11-22T05:06:51.202Z,22.05
2017-11-22T05:07:23.250Z,21.99
2017-11-22T05:07:55.276Z,21.99
2017-11-22T05:08:27.431Z,22.05
2017-11-22T05:08:59.570Z,22.04
2017-11-22T05:09:31.599Z,22.07
2017-11-22T05:10:03.605Z,22.05
2017-11-22T05:10:35.645Z,22.08
2017-11-22T05:11:07.650Z,22.04
2017-11-22T05:11:39.648Z,21.99
2017-11-22T05:12:11.716Z,22.05
2017-11-22T05:12:43.739Z,22.07
2017-11-22T05:13:15.858Z,22.04
2017-11-22T05:13:47.903Z,22.04
2017-11-22T05:14:19.932Z,21.97
2017-11-22T05:14:52.716Z,22.02
2017-11-22T05:15:24.696Z,21.97
2017-11-22T05:15:56.752Z,22.04
2017-11-22T05:16:28.748Z,22.05
2017-11-22T05:17:00.772Z,22.07
2017-11-22T05:17:32.788Z,22.05
2017-11-22T05:18:04.805Z,21.97
2017-11-22T05:18:36.837Z,21.99
2017-11-22T05:19:08.889Z,21.97
2017-11-22T05:19:40.922Z,22.02
2017-11-22T05:20:12.960Z,22.02
2017-11-22T05:20:44.961Z,21.96
2017-11-22T05:21:16.992Z,21.96
2017-11-22T05:21:49.049Z,21.99
2017-11-22T05:22:21.045Z,22.02
2017-11-22T05:22:53.088Z,21.97
2017-11-22T05:23:25.109Z,21.96
2017-11-22T05:23:57.124Z,21.96
2017-11-22T05:24:29.167Z,21.97
2017-11-22T05:25:01.168Z,21.93
2017-11-22T05:25:33.171Z,21.93
2017-11-22T05:26:05.217Z,21.99
2017-11-22T05:26:37.252Z,21.96
2017-11-22T05:27:09.279Z,21.9
2017-11-22T05:27:41.301Z,21.99
2017-11-22T05:28:13.362Z,21.99
2017-11-22T05:28:45.375Z,21.99
2017-11-22T05:29:17.429Z,21.94
2017-11-22T05:29:49.473Z,21.9
2017-11-22T05:30:21.507Z,21.99
2017-11-22T05:30:53.527Z,22.02
2017-11-22T05:31:25.541Z,21.97
2017-11-22T05:31:57.579Z,21.94
2017-11-22T05:32:29.597Z,21.94
2017-11-22T05:33:01.616Z,22.02
2017-11-22T05:33:33.631Z,22
2017-11-22T05:34:05.642Z,21.99
2017-11-22T05:34:37.660Z,21.99
2017-11-22T05:35:09.703Z,21.97
2017-11-22T05:35:41.707Z,22
2017-11-22T05:36:13.724Z,21.93
2017-11-22T05:36:45.789Z,22
2017-11-22T05:37:17.791Z,21.97
2017-11-22T05:37:49.822Z,21.96
2017-11-22T05:38:21.819Z,22.02
2017-11-22T05:38:53.837Z,21.93
2017-11-22T05:39:25.859Z,21.97
2017-11-22T05:39:57.967Z,22.05
2017-11-22T05:40:29.952Z,21.97
2017-11-22T05:41:02.002Z,21.94
2017-11-22T05:41:34.017Z,22
2017-11-22T05:42:06.065Z,21.99
2017-11-22T05:42:38.039Z,22
2017-11-22T05:43:10.070Z,21.96
2017-11-22T05:43:42.124Z,22
2017-11-22T05:44:14.162Z,22.02
2017-11-22T05:44:46.196Z,21.9
2017-11-22T05:45:18.217Z,21.94
2017-11-22T05:45:50.254Z,21.99
2017-11-22T05:46:22.290Z,22.04
2017-11-22T05:46:54.340Z,21.93
2017-11-22T05:47:26.387Z,21.93
2017-11-22T05:47:58.386Z,22
2017-11-22T05:48:30.411Z,21.92
2017-11-22T05:49:02.534Z,22.04
2017-11-22T05:49:34.565Z,21.99
2017-11-22T05:50:06.702Z,21.94
2017-11-22T05:50:38.784Z,21.94
2017-11-22T05:51:10.840Z,21.93
2017-11-22T05:51:42.848Z,21.96
2017-11-22T05:52:14.859Z,21.97
2017-11-22T05:52:46.867Z,21.85
2017-11-22T05:53:18.909Z,22.02
2017-11-22T05:53:50.992Z,21.94
2017-11-22T05:54:23.014Z,21.93
2017-11-22T05:54:55.031Z,21.96
2017-11-22T05:55:27.046Z,21.92
2017-11-22T05:55:59.090Z,21.97
2017-11-22T05:56:31.123Z,21.94
2017-11-22T05:57:03.162Z,21.94
2017-11-22T05:57:35.259Z,21.97
2017-11-22T05:58:07.296Z,21.96
2017-11-22T05:58:39.311Z,21.99
2017-11-22T05:59:11.340Z,21.99
2017-11-22T05:59:43.357Z,21.97
2017-11-22T06:00:15.395Z,21.94
2017-11-22T06:00:47.401Z,22
2017-11-22T06:01:19.437Z,21.96
2017-11-22T06:01:51.437Z,22
2017-11-22T06:02:23.431Z,21.96
2017-11-22T06:02:55.462Z,21.99
2017-11-22T06:03:27.476Z,21.97
2017-11-22T06:03:59.501Z,22.02
2017-11-22T06:04:31.586Z,21.93
2017-11-22T06:05:03.582Z,21.97
2017-11-22T06:05:35.620Z,21.99
2017-11-22T06:06:07.762Z,22
2017-11-22T06:06:39.801Z,21.93
2017-11-22T06:07:11.832Z,21.97
2017-11-22T06:07:43.823Z,21.97
2017-11-22T06:08:15.851Z,21.89
2017-11-22T06:08:47.881Z,21.97
2017-11-22T06:09:19.891Z,21.96
2017-11-22T06:09:51.912Z,21.94
2017-11-22T06:10:24.013Z,21.92
2017-11-22T06:10:56.050Z,21.94
2017-11-22T06:11:28.145Z,21.93
2017-11-22T06:12:00.187Z,21.89
2017-11-22T06:12:32.214Z,21.93
2017-11-22T06:13:04.234Z,21.99
2017-11-22T06:13:36.263Z,21.99
2017-11-22T06:14:08.328Z,22
2017-11-22T06:14:40.337Z,21.96
2017-11-22T06:15:12.371Z,21.99
2017-11-22T06:15:44.405Z,21.97
2017-11-22T06:16:16.441Z,21.97
2017-11-22T06:16:48.488Z,22
2017-11-22T06:17:20.553Z,21.94
2017-11-22T06:17:52.547Z,21.99
2017-11-22T06:18:24.568Z,21.99
2017-11-22T06:18:56.578Z,22
2017-11-22T06:19:28.584Z,21.96
2017-11-22T06:20:00.633Z,21.89
2017-11-22T06:20:32.752Z,21.99
2017-11-22T06:21:04.739Z,21.93
2017-11-22T06:21:36.753Z,21.99
2017-11-22T06:22:08.822Z,21.96
2017-11-22T06:22:40.837Z,21.94
2017-11-22T06:23:12.871Z,21.93
2017-11-22T06:23:44.909Z,21.99
2017-11-22T06:24:16.950Z,21.97
2017-11-22T06:24:48.981Z,21.92
2017-11-22T06:25:21.159Z,21.93
2017-11-22T06:25:53.169Z,21.96
2017-11-22T06:26:25.219Z,21.92
2017-11-22T06:26:57.982Z,21.99
2017-11-22T06:27:30.041Z,21.93
2017-11-22T06:28:02.081Z,21.99
2017-11-22T06:28:34.125Z,21.97
2017-11-22T06:29:06.177Z,21.97
2017-11-22T06:29:38.186Z,21.89
2017-11-22T06:30:10.217Z,21.97
2017-11-22T06:30:42.230Z,21.9
2017-11-22T06:31:14.325Z,21.93
2017-11-22T06:31:46.354Z,21.97
2017-11-22T06:32:18.384Z,21.96
2017-11-22T06:32:50.535Z,21.93
2017-11-22T06:33:23.751Z,21.96
2017-11-22T06:33:55.776Z,21.97
2017-11-22T06:34:27.813Z,21.96
2017-11-22T06:34:59.864Z,21.9
2017-11-22T06:35:31.894Z,21.99
2017-11-22T06:36:03.931Z,21.9
2017-11-22T06:36:36.063Z,21.99
2017-11-22T06:37:08.095Z,21.97
2017-11-22T06:37:40.097Z,21.97
2017-11-22T06:38:12.128Z,22.02
2017-11-22T06:38:44.145Z,21.94
2017-11-22T06:39:16.214Z,21.97
2017-11-22T06:39:48.391Z,21.97
2017-11-22T06:40:22.549Z,21.97
2017-11-22T06:40:54.573Z,21.94
2017-11-22T06:41:26.603Z,21.94
2017-11-22T06:41:58.624Z,21.92
2017-11-22T06:42:30.634Z,21.93
2017-11-22T06:43:02.642Z,21.94
2017-11-22T06:43:34.658Z,21.97
2017-11-22T06:44:06.671Z,21.97
2017-11-22T06:44:38.668Z,21.94
2017-11-22T06:45:10.682Z,21.97
2017-11-22T06:45:42.710Z,21.96
2017-11-22T06:46:14.735Z,21.96
2017-11-22T06:46:46.748Z,21.97
2017-11-22T06:47:18.815Z,21.99
2017-11-22T06:47:50.854Z,22.04
2017-11-22T06:48:22.857Z,21.94
2017-11-22T06:48:54.906Z,21.97
2017-11-22T06:49:26.931Z,21.94
2017-11-22T06:49:58.959Z,21.94
2017-11-22T06:50:30.971Z,21.97
2017-11-22T06:51:03.083Z,21.93
2017-11-22T06:51:35.110Z,22
2017-11-22T06:52:07.164Z,21.97
2017-11-22T06:52:39.220Z,21.99
2017-11-22T06:53:11.275Z,21.94
2017-11-22T06:53:43.322Z,21.97
2017-11-22T06:54:15.370Z,21.99
2017-11-22T06:54:47.420Z,21.97
2017-11-22T06:55:19.442Z,21.96
2017-11-22T06:55:51.441Z,22
2017-11-22T06:56:23.483Z,21.96
2017-11-22T06:56:55.540Z,21.96
2017-11-22T06:57:27.575Z,21.9
2017-11-22T06:57:59.646Z,21.94
2017-11-22T06:58:31.643Z,21.96
2017-11-22T06:59:03.754Z,22
2017-11-22T06:59:35.780Z,22.04
2017-11-22T07:00:07.799Z,21.93
2017-11-22T07:00:39.820Z,21.96
2017-11-22T07:01:11.886Z,21.9
2017-11-22T07:01:43.870Z,21.92
2017-11-22T07:02:15.933Z,21.94
2017-11-22T07:02:48.114Z,21.97
2017-11-22T07:03:20.125Z,21.94
2017-11-22T07:03:52.142Z,21.93
2017-11-22T07:04:24.155Z,21.99
2017-11-22T07:04:56.227Z,22
2017-11-22T07:05:28.220Z,21.96
2017-11-22T07:06:00.823Z,21.94
2017-11-22T07:06:32.879Z,21.96
2017-11-22T07:07:04.922Z,21.96
2017-11-22T07:07:36.994Z,21.99
2017-11-22T07:08:09.014Z,21.97
2017-11-22T07:08:41.064Z,21.93
2017-11-22T07:09:13.111Z,21.92
2017-11-22T07:09:45.132Z,22
2017-11-22T07:10:17.168Z,21.99
2017-11-22T07:10:49.227Z,21.99
2017-11-22T07:11:21.337Z,22
2017-11-22T07:11:53.487Z,22.02
2017-11-22T07:12:25.526Z,21.99
2017-11-22T07:12:57.542Z,21.94
2017-11-22T07:13:29.588Z,21.99
2017-11-22T07:14:01.651Z,21.97
2017-11-22T07:14:33.799Z,21.96
2017-11-22T07:15:05.814Z,22.04
2017-11-22T07:15:37.848Z,22.05
2017-11-22T07:16:10.063Z,22.05
2017-11-22T07:16:42.090Z,21.99
2017-11-22T07:17:14.321Z,21.99
2017-11-22T07:17:46.413Z,22
2017-11-22T07:18:19.037Z,22.04
2017-11-22T07:18:51.073Z,22
2017-11-22T07:19:23.123Z,21.93
2017-11-22T07:19:55.231Z,21.99
2017-11-22T07:20:27.261Z,21.94
2017-11-22T07:20:59.277Z,21.96
2017-11-22T07:21:31.316Z,22.05
2017-11-22T07:22:03.458Z,22.02
2017-11-22T07:22:35.486Z,22.08
2017-11-22T07:23:07.478Z,22.07
2017-11-22T07:23:39.531Z,22.02
2017-11-22T07:24:11.615Z,22.07
2017-11-22T07:24:43.761Z,21.97
2017-11-22T07:25:15.786Z,21.96
2017-11-22T07:25:47.824Z,22.07
2017-11-22T07:26:19.882Z,22.02
2017-11-22T07:26:51.929Z,22.09
2017-11-22T07:27:23.934Z,22.05
2017-11-22T07:27:55.947Z,22.05
2017-11-22T07:28:28.742Z,22
2017-11-22T07:29:00.750Z,21.97
2017-11-22T07:29:32.821Z,22.07
2017-11-22T07:30:04.848Z,22
2017-11-22T07:30:36.975Z,22.05
2017-11-22T07:31:09.084Z,22.09
2017-11-22T07:31:41.120Z,22.07
2017-11-22T07:32:13.148Z,22.07
2017-11-22T07:32:45.205Z,22.04
2017-11-22T07:33:17.922Z,22.04
2017-11-22T07:33:50.039Z,22
2017-11-22T07:34:22.278Z,22.04
2017-11-22T07:34:54.356Z,22.04
2017-11-22T07:35:26.418Z,22.05
2017-11-22T07:35:58.443Z,22.04
2017-11-22T07:36:30.481Z,22.05
2017-11-22T07:37:02.492Z,22.09
2017-11-22T07:37:35.168Z,22.09
2017-11-22T07:38:07.225Z,22.02
2017-11-22T07:38:39.221Z,22.09
2017-11-22T07:39:11.837Z,22.07
2017-11-22T07:39:43.856Z,22.14
2017-11-22T07:40:15.888Z,22.09
2017-11-22T07:40:47.921Z,22.09
2017-11-22T07:41:19.986Z,22.09
2017-11-22T07:41:52.211Z,22.14
2017-11-22T07:42:25.176Z,22.07
2017-11-22T07:42:57.227Z,22.09
2017-11-22T07:43:29.245Z,22.14
2017-11-22T07:44:01.284Z,22.09
2017-11-22T07:44:33.313Z,22.11
2017-11-22T07:45:05.409Z,22.12
2017-11-22T07:45:37.444Z,22.11
2017-11-22T07:46:09.487Z,22.08
2017-11-22T07:46:41.522Z,22.11
2017-11-22T07:47:13.576Z,22.11
2017-11-22T07:47:46.353Z,22.15
2017-11-22T07:48:18.497Z,22.09
2017-11-22T07:48:50.698Z,22.09
2017-11-22T07:49:22.788Z,22.14